sensor_id;sensor_type;location;lat;lon;timestamp;P1;durP1;ratioP1;P2;durP2;ratioP2
59442;SDS011;45247;47.466;19.004;2023-01-30T13:40:13;15.25;;;9.57;;
59442;SDS011;45247;47.466;19.004;2023-01-30T13:42:55;15.95;;;9.88;;
59442;SDS011;45247;47.466;19.004;2023-01-30T13:45:32;22.17;;;11.90;;
59442;SDS011;45247;47.466;19.004;2023-01-30T13:48:07;18.83;;;10.93;;
59442;SDS011;45247;47.466;19.004;2023-01-30T13:50:50;16.15;;;9.48;;
59442;SDS011;45247;47.466;19.004;2023-01-30T13:53:29;15.95;;;8.55;;
59442;SDS011;45247;47.466;19.004;2023-01-30T13:56:14;17.77;;;9.00;;
59442;SDS011;45247;47.466;19.004;2023-01-30T13:59:06;13.90;;;8.45;;
59442;SDS011;45247;47.466;19.004;2023-01-30T14:02:38;15.90;;;8.82;;
59442;SDS011;45247;47.466;19.004;2023-01-30T14:06:02;13.68;;;8.38;;
59442;SDS011;45247;47.466;19.004;2023-01-30T14:08:51;13.68;;;7.72;;
59442;SDS011;45247;47.466;19.004;2023-01-30T14:11:32;13.93;;;8.35;;
59442;SDS011;45247;47.466;19.004;2023-01-30T14:14:27;13.45;;;8.73;;
59442;SDS011;45247;47.466;19.004;2023-01-30T14:17:06;13.15;;;8.43;;
59442;SDS011;45247;47.466;19.004;2023-01-30T14:19:39;16.23;;;9.40;;
59442;SDS011;45247;47.466;19.004;2023-01-30T14:22:24;16.40;;;8.63;;
59442;SDS011;45247;47.466;19.004;2023-01-30T14:29:06;12.73;;;8.27;;
59442;SDS011;45247;47.466;19.004;2023-01-30T14:37:26;15.65;;;8.80;;
59442;SDS011;45247;47.466;19.004;2023-01-30T14:43:57;17.75;;;9.20;;
59442;SDS011;45247;47.466;19.004;2023-01-30T14:49:36;17.10;;;8.88;;
59442;SDS011;45247;47.466;19.004;2023-01-30T14:52:16;16.63;;;8.90;;
59442;SDS011;45247;47.466;19.004;2023-01-30T14:55:00;14.75;;;8.98;;
59442;SDS011;45247;47.466;19.004;2023-01-30T14:57:30;14.02;;;8.82;;
59442;SDS011;45247;47.466;19.004;2023-01-30T15:00:04;16.58;;;9.15;;
59442;SDS011;45247;47.466;19.004;2023-01-30T15:05:36;17.15;;;9.48;;
59442;SDS011;45247;47.466;19.004;2023-01-30T15:08:08;26.05;;;12.63;;
59442;SDS011;45247;47.466;19.004;2023-01-30T15:11:01;22.88;;;13.77;;
59442;SDS011;45247;47.466;19.004;2023-01-30T15:14:03;24.15;;;12.68;;
59442;SDS011;45247;47.466;19.004;2023-01-30T15:16:42;25.50;;;14.38;;
59442;SDS011;45247;47.466;19.004;2023-01-30T15:19:37;25.65;;;13.73;;
59442;SDS011;45247;47.466;19.004;2023-01-30T15:22:33;22.50;;;13.18;;
59442;SDS011;45247;47.466;19.004;2023-01-30T15:25:20;25.15;;;14.27;;
59442;SDS011;45247;47.466;19.004;2023-01-30T15:28:14;22.20;;;12.80;;
59442;SDS011;45247;47.466;19.004;2023-01-30T15:30:55;26.83;;;15.15;;
59442;SDS011;45247;47.466;19.004;2023-01-30T15:34:02;20.77;;;11.68;;
59442;SDS011;45247;47.466;19.004;2023-01-30T15:40:10;19.65;;;11.65;;
59442;SDS011;45247;47.466;19.004;2023-01-30T15:43:07;24.02;;;13.35;;
59442;SDS011;45247;47.466;19.004;2023-01-30T15:45:53;21.08;;;11.48;;
59442;SDS011;45247;47.466;19.004;2023-01-30T15:48:48;22.70;;;12.80;;
59442;SDS011;45247;47.466;19.004;2023-01-30T15:51:27;17.77;;;11.30;;
59442;SDS011;45247;47.466;19.004;2023-01-30T15:54:03;19.90;;;12.30;;
59442;SDS011;45247;47.466;19.004;2023-01-30T15:56:52;17.75;;;11.63;;
59442;SDS011;45247;47.466;19.004;2023-01-30T15:59:31;19.60;;;11.18;;
59442;SDS011;45247;47.466;19.004;2023-01-30T16:02:14;21.48;;;12.57;;
59442;SDS011;45247;47.466;19.004;2023-01-30T16:08:20;19.50;;;11.02;;
59442;SDS011;45247;47.466;19.004;2023-01-30T16:11:11;21.83;;;12.77;;
59442;SDS011;45247;47.466;19.004;2023-01-30T16:13:46;23.42;;;12.48;;
59442;SDS011;45247;47.466;19.004;2023-01-30T16:16:19;25.40;;;13.73;;
59442;SDS011;45247;47.466;19.004;2023-01-30T16:19:03;21.65;;;13.20;;
59442;SDS011;45247;47.466;19.004;2023-01-30T16:21:48;20.40;;;12.43;;
59442;SDS011;45247;47.466;19.004;2023-01-30T16:24:34;22.48;;;13.10;;
59442;SDS011;45247;47.466;19.004;2023-01-30T16:27:36;22.02;;;12.63;;
59442;SDS011;45247;47.466;19.004;2023-01-30T16:30:29;21.35;;;11.68;;
59442;SDS011;45247;47.466;19.004;2023-01-30T16:33:18;21.08;;;12.60;;
59442;SDS011;45247;47.466;19.004;2023-01-30T16:36:37;20.75;;;12.30;;
59442;SDS011;45247;47.466;19.004;2023-01-30T16:39:36;28.88;;;15.63;;
59442;SDS011;45247;47.466;19.004;2023-01-30T16:50:12;24.65;;;13.60;;
59442;SDS011;45247;47.466;19.004;2023-01-30T16:52:53;24.65;;;14.18;;
59442;SDS011;45247;47.466;19.004;2023-01-30T16:55:37;25.48;;;15.73;;
59442;SDS011;45247;47.466;19.004;2023-01-30T16:58:11;28.23;;;15.57;;
59442;SDS011;45247;47.466;19.004;2023-01-30T17:01:18;25.05;;;14.88;;
59442;SDS011;45247;47.466;19.004;2023-01-30T17:04:35;22.30;;;13.93;;
59442;SDS011;45247;47.466;19.004;2023-01-30T17:22:21;24.77;;;14.57;;
59442;SDS011;45247;47.466;19.004;2023-01-30T17:24:52;26.70;;;17.25;;
59442;SDS011;45247;47.466;19.004;2023-01-30T17:27:40;27.20;;;18.33;;
59442;SDS011;45247;47.466;19.004;2023-01-30T17:30:44;23.52;;;14.18;;
59442;SDS011;45247;47.466;19.004;2023-01-30T17:33:15;25.33;;;14.52;;
59442;SDS011;45247;47.466;19.004;2023-01-30T17:38:38;24.48;;;13.57;;
59442;SDS011;45247;47.466;19.004;2023-01-30T17:41:18;21.48;;;13.57;;
59442;SDS011;45247;47.466;19.004;2023-01-30T17:44:02;21.85;;;13.95;;
59442;SDS011;45247;47.466;19.004;2023-01-30T17:46:34;21.25;;;14.18;;
59442;SDS011;45247;47.466;19.004;2023-01-30T17:49:13;23.33;;;15.50;;
59442;SDS011;45247;47.466;19.004;2023-01-30T17:51:45;23.77;;;13.23;;
59442;SDS011;45247;47.466;19.004;2023-01-30T17:54:17;18.45;;;11.20;;
59442;SDS011;45247;47.466;19.004;2023-01-30T17:56:49;21.98;;;12.90;;
59442;SDS011;45247;47.466;19.004;2023-01-30T17:59:21;26.00;;;14.13;;
59442;SDS011;45247;47.466;19.004;2023-01-30T18:01:57;20.33;;;12.30;;
59442;SDS011;45247;47.466;19.004;2023-01-30T18:04:27;21.10;;;13.25;;
59442;SDS011;45247;47.466;19.004;2023-01-30T18:07:00;17.73;;;10.30;;
59442;SDS011;45247;47.466;19.004;2023-01-30T18:09:35;18.42;;;10.95;;
59442;SDS011;45247;47.466;19.004;2023-01-30T18:12:11;19.13;;;10.15;;
59442;SDS011;45247;47.466;19.004;2023-01-30T18:14:41;15.88;;;10.02;;
59442;SDS011;45247;47.466;19.004;2023-01-30T18:17:24;14.38;;;9.45;;
59442;SDS011;45247;47.466;19.004;2023-01-30T18:19:55;14.35;;;9.13;;
59442;SDS011;45247;47.466;19.004;2023-01-30T18:22:28;19.57;;;9.97;;
59442;SDS011;45247;47.466;19.004;2023-01-30T18:24:59;23.27;;;10.98;;
59442;SDS011;45247;47.466;19.004;2023-01-30T18:27:28;21.27;;;11.25;;
59442;SDS011;45247;47.466;19.004;2023-01-30T18:29:59;16.77;;;10.50;;
59442;SDS011;45247;47.466;19.004;2023-01-30T18:32:29;16.10;;;11.15;;
59442;SDS011;45247;47.466;19.004;2023-01-30T18:35:03;18.92;;;12.50;;
59442;SDS011;45247;47.466;19.004;2023-01-30T18:37:34;18.55;;;11.93;;
59442;SDS011;45247;47.466;19.004;2023-01-30T18:40:07;23.10;;;12.25;;
59442;SDS011;45247;47.466;19.004;2023-01-30T18:42:42;19.00;;;11.27;;
59442;SDS011;45247;47.466;19.004;2023-01-30T18:45:13;17.55;;;11.35;;
59442;SDS011;45247;47.466;19.004;2023-01-30T18:47:43;20.30;;;11.73;;
59442;SDS011;45247;47.466;19.004;2023-01-30T18:50:13;19.60;;;11.05;;
59442;SDS011;45247;47.466;19.004;2023-01-30T18:52:44;19.92;;;10.88;;
59442;SDS011;45247;47.466;19.004;2023-01-30T18:55:13;15.55;;;10.07;;
59442;SDS011;45247;47.466;19.004;2023-01-30T18:57:43;16.38;;;10.48;;
59442;SDS011;45247;47.466;19.004;2023-01-30T19:00:12;20.65;;;12.23;;
59442;SDS011;45247;47.466;19.004;2023-01-30T19:02:43;16.55;;;10.20;;
59442;SDS011;45247;47.466;19.004;2023-01-30T19:05:13;17.75;;;10.57;;
59442;SDS011;45247;47.466;19.004;2023-01-30T19:07:51;16.75;;;10.93;;
59442;SDS011;45247;47.466;19.004;2023-01-30T19:10:24;15.27;;;9.73;;
59442;SDS011;45247;47.466;19.004;2023-01-30T19:13:03;16.25;;;10.60;;
59442;SDS011;45247;47.466;19.004;2023-01-30T19:15:49;18.25;;;10.82;;
59442;SDS011;45247;47.466;19.004;2023-01-30T19:18:18;17.08;;;10.57;;
59442;SDS011;45247;47.466;19.004;2023-01-30T19:20:49;15.63;;;9.20;;
59442;SDS011;45247;47.466;19.004;2023-01-30T19:23:25;12.88;;;8.25;;
59442;SDS011;45247;47.466;19.004;2023-01-30T19:25:56;12.60;;;7.72;;
59442;SDS011;45247;47.466;19.004;2023-01-30T19:28:28;15.23;;;8.90;;
59442;SDS011;45247;47.466;19.004;2023-01-30T19:30:57;12.70;;;8.32;;
59442;SDS011;45247;47.466;19.004;2023-01-30T19:33:32;11.43;;;7.75;;
59442;SDS011;45247;47.466;19.004;2023-01-30T19:36:07;14.20;;;8.05;;
59442;SDS011;45247;47.466;19.004;2023-01-30T19:38:38;10.63;;;6.75;;
59442;SDS011;45247;47.466;19.004;2023-01-30T19:41:09;13.50;;;7.00;;
59442;SDS011;45247;47.466;19.004;2023-01-30T19:43:44;10.55;;;7.20;;
59442;SDS011;45247;47.466;19.004;2023-01-30T19:46:14;12.73;;;7.82;;
59442;SDS011;45247;47.466;19.004;2023-01-30T19:48:45;10.85;;;5.82;;
59442;SDS011;45247;47.466;19.004;2023-01-30T19:51:16;11.88;;;6.63;;
59442;SDS011;45247;47.466;19.004;2023-01-30T19:53:50;10.60;;;6.53;;
59442;SDS011;45247;47.466;19.004;2023-01-30T19:56:42;9.15;;;6.10;;
59442;SDS011;45247;47.466;19.004;2023-01-30T19:59:27;10.00;;;6.63;;
59442;SDS011;45247;47.466;19.004;2023-01-30T20:02:35;9.77;;;6.57;;
59442;SDS011;45247;47.466;19.004;2023-01-30T20:05:08;11.10;;;6.20;;
59442;SDS011;45247;47.466;19.004;2023-01-30T20:07:41;9.77;;;6.50;;
59442;SDS011;45247;47.466;19.004;2023-01-30T20:10:22;11.07;;;7.18;;
59442;SDS011;45247;47.466;19.004;2023-01-30T20:12:51;10.57;;;7.28;;
59442;SDS011;45247;47.466;19.004;2023-01-30T20:15:20;8.82;;;6.25;;
59442;SDS011;45247;47.466;19.004;2023-01-30T20:17:50;10.02;;;6.25;;
59442;SDS011;45247;47.466;19.004;2023-01-30T20:20:22;10.35;;;6.30;;
59442;SDS011;45247;47.466;19.004;2023-01-30T20:22:52;9.75;;;6.25;;
59442;SDS011;45247;47.466;19.004;2023-01-30T20:25:29;10.90;;;6.30;;
59442;SDS011;45247;47.466;19.004;2023-01-30T20:28:02;8.80;;;5.40;;
59442;SDS011;45247;47.466;19.004;2023-01-30T20:30:35;9.45;;;6.00;;
59442;SDS011;45247;47.466;19.004;2023-01-30T20:33:07;9.20;;;5.90;;
59442;SDS011;45247;47.466;19.004;2023-01-30T20:35:36;11.95;;;5.35;;
59442;SDS011;45247;47.466;19.004;2023-01-30T20:38:08;9.45;;;5.20;;
59442;SDS011;45247;47.466;19.004;2023-01-30T20:40:41;7.55;;;5.28;;
59442;SDS011;45247;47.466;19.004;2023-01-30T20:43:18;9.82;;;6.07;;
59442;SDS011;45247;47.466;19.004;2023-01-30T20:46:00;10.02;;;6.18;;
59442;SDS011;45247;47.466;19.004;2023-01-30T20:48:30;10.80;;;6.18;;
59442;SDS011;45247;47.466;19.004;2023-01-30T20:51:10;10.45;;;6.45;;
59442;SDS011;45247;47.466;19.004;2023-01-30T20:53:44;9.75;;;6.60;;
59442;SDS011;45247;47.466;19.004;2023-01-30T20:56:16;10.18;;;6.30;;
59442;SDS011;45247;47.466;19.004;2023-01-30T20:58:46;10.57;;;6.27;;
59442;SDS011;45247;47.466;19.004;2023-01-30T21:01:16;12.02;;;6.20;;
59442;SDS011;45247;47.466;19.004;2023-01-30T21:03:46;9.40;;;6.25;;
59442;SDS011;45247;47.466;19.004;2023-01-30T21:06:18;11.70;;;5.93;;
59442;SDS011;45247;47.466;19.004;2023-01-30T21:09:09;8.70;;;5.15;;
59442;SDS011;45247;47.466;19.004;2023-01-30T21:11:44;11.18;;;6.28;;
59442;SDS011;45247;47.466;19.004;2023-01-30T21:14:14;9.23;;;5.28;;
59442;SDS011;45247;47.466;19.004;2023-01-30T21:16:44;9.02;;;5.90;;
59442;SDS011;45247;47.466;19.004;2023-01-30T21:19:14;8.63;;;5.53;;
59442;SDS011;45247;47.466;19.004;2023-01-30T21:21:44;8.38;;;4.70;;
59442;SDS011;45247;47.466;19.004;2023-01-30T21:26:47;5.72;;;4.35;;
59442;SDS011;45247;47.466;19.004;2023-01-30T21:29:18;5.30;;;3.27;;
59442;SDS011;45247;47.466;19.004;2023-01-30T21:31:48;5.82;;;3.97;;
59442;SDS011;45247;47.466;19.004;2023-01-30T21:34:17;6.00;;;3.67;;
59442;SDS011;45247;47.466;19.004;2023-01-30T21:36:46;6.68;;;3.50;;
59442;SDS011;45247;47.466;19.004;2023-01-30T21:39:35;4.97;;;3.40;;
59442;SDS011;45247;47.466;19.004;2023-01-30T21:42:25;7.38;;;3.47;;
59442;SDS011;45247;47.466;19.004;2023-01-30T21:45:13;9.48;;;3.60;;
59442;SDS011;45247;47.466;19.004;2023-01-30T21:47:42;7.15;;;3.22;;
59442;SDS011;45247;47.466;19.004;2023-01-30T21:50:10;5.75;;;3.60;;
59442;SDS011;45247;47.466;19.004;2023-01-30T21:52:38;4.45;;;3.13;;
59442;SDS011;45247;47.466;19.004;2023-01-30T21:55:07;5.03;;;3.50;;
59442;SDS011;45247;47.466;19.004;2023-01-30T21:57:37;5.70;;;3.85;;
59442;SDS011;45247;47.466;19.004;2023-01-30T22:00:06;5.70;;;3.22;;
59442;SDS011;45247;47.466;19.004;2023-01-30T22:02:35;4.65;;;3.10;;
59442;SDS011;45247;47.466;19.004;2023-01-30T22:05:03;6.38;;;4.00;;
59442;SDS011;45247;47.466;19.004;2023-01-30T22:07:32;5.93;;;3.33;;
59442;SDS011;45247;47.466;19.004;2023-01-30T22:10:00;4.75;;;3.38;;
59442;SDS011;45247;47.466;19.004;2023-01-30T22:12:28;6.80;;;3.10;;
59442;SDS011;45247;47.466;19.004;2023-01-30T22:14:59;4.75;;;3.08;;
59442;SDS011;45247;47.466;19.004;2023-01-30T22:17:29;8.13;;;3.67;;
59442;SDS011;45247;47.466;19.004;2023-01-30T22:19:58;4.63;;;2.90;;
59442;SDS011;45247;47.466;19.004;2023-01-30T22:22:27;7.55;;;2.95;;
59442;SDS011;45247;47.466;19.004;2023-01-30T22:24:58;5.60;;;3.50;;
59442;SDS011;45247;47.466;19.004;2023-01-30T22:27:26;5.30;;;3.70;;
59442;SDS011;45247;47.466;19.004;2023-01-30T22:29:54;4.65;;;3.08;;
59442;SDS011;45247;47.466;19.004;2023-01-30T22:32:24;4.05;;;2.90;;
59442;SDS011;45247;47.466;19.004;2023-01-30T22:34:52;4.63;;;2.97;;
59442;SDS011;45247;47.466;19.004;2023-01-30T22:37:20;7.82;;;3.17;;
59442;SDS011;45247;47.466;19.004;2023-01-30T22:39:48;4.63;;;2.95;;
59442;SDS011;45247;47.466;19.004;2023-01-30T22:42:17;4.97;;;3.00;;
59442;SDS011;45247;47.466;19.004;2023-01-30T22:44:45;6.38;;;3.22;;
59442;SDS011;45247;47.466;19.004;2023-01-30T22:47:13;4.90;;;3.20;;
59442;SDS011;45247;47.466;19.004;2023-01-30T22:49:43;3.72;;;2.70;;
59442;SDS011;45247;47.466;19.004;2023-01-30T22:52:11;4.57;;;2.83;;
59442;SDS011;45247;47.466;19.004;2023-01-30T22:54:39;6.22;;;3.28;;
59442;SDS011;45247;47.466;19.004;2023-01-30T22:57:07;4.85;;;2.80;;
59442;SDS011;45247;47.466;19.004;2023-01-30T22:59:35;4.65;;;2.65;;
59442;SDS011;45247;47.466;19.004;2023-01-30T23:02:03;3.80;;;2.33;;
59442;SDS011;45247;47.466;19.004;2023-01-30T23:04:35;4.60;;;2.50;;
59442;SDS011;45247;47.466;19.004;2023-01-30T23:07:05;4.20;;;2.55;;
59442;SDS011;45247;47.466;19.004;2023-01-30T23:09:35;4.45;;;2.97;;
59442;SDS011;45247;47.466;19.004;2023-01-30T23:12:04;4.28;;;2.42;;
59442;SDS011;45247;47.466;19.004;2023-01-30T23:14:50;5.10;;;2.55;;
59442;SDS011;45247;47.466;19.004;2023-01-30T23:17:18;4.38;;;2.08;;
59442;SDS011;45247;47.466;19.004;2023-01-30T23:20:04;2.47;;;1.95;;
59442;SDS011;45247;47.466;19.004;2023-01-30T23:22:34;4.53;;;2.30;;
59442;SDS011;45247;47.466;19.004;2023-01-30T23:25:03;5.20;;;2.33;;
59442;SDS011;45247;47.466;19.004;2023-01-30T23:27:31;3.05;;;2.33;;
59442;SDS011;45247;47.466;19.004;2023-01-30T23:29:59;4.28;;;2.30;;
59442;SDS011;45247;47.466;19.004;2023-01-30T23:32:27;2.67;;;1.98;;
59442;SDS011;45247;47.466;19.004;2023-01-30T23:34:56;3.28;;;2.30;;
59442;SDS011;45247;47.466;19.004;2023-01-30T23:37:24;4.35;;;2.50;;
59442;SDS011;45247;47.466;19.004;2023-01-30T23:40:08;4.18;;;2.80;;
59442;SDS011;45247;47.466;19.004;2023-01-30T23:42:37;4.78;;;3.25;;
59442;SDS011;45247;47.466;19.004;2023-01-30T23:45:06;5.05;;;2.88;;
59442;SDS011;45247;47.466;19.004;2023-01-30T23:47:34;4.25;;;3.10;;
59442;SDS011;45247;47.466;19.004;2023-01-30T23:50:03;4.88;;;3.38;;
59442;SDS011;45247;47.466;19.004;2023-01-30T23:52:31;4.15;;;2.88;;
59442;SDS011;45247;47.466;19.004;2023-01-30T23:55:00;4.82;;;3.67;;
59442;SDS011;45247;47.466;19.004;2023-01-30T23:57:30;5.43;;;3.47;;
59442;SDS011;45247;47.466;19.004;2023-01-30T23:59:58;4.80;;;3.00;;
